Clarkston, Washington
Current Conditions -  °F | °C
As of 12:56 AM on Sunday 26 Oct 2014 (Local Time) from KLWS Reporting Station
Broken Clouds Broken Clouds  
Wind Chill: 58°   Ceiling: 11000
Heat Index: 58°   Visibility: 10mi
Dew Point: 37°   Wind: 12mph
Humidity: 46%   Direction: 300°WNW
Pressure: 29.78"   Gusts: NA
Location:  46.41°N, 117.04°W
Report Text: KLWS 260756Z AUTO 30010KT 10SM SCT080 BKN110 14/03 A2978 RMK AO2 RAE03 SLP081 P0000 T01440028 402280089
Loading
Personal Weather Stations






























Interactive Weather Map New forecast layout! Learn more

10-Day Weather Forecast

Advertisements
Track Severe Weather on mobile